Bloomington, Idaho
Current Conditions -  °F | °C
As of 1:51 AM on Saturday 25 Oct 2014 (Local Time) from KLGU Reporting Station
Clear Clear  
Wind Chill: 38°   Ceiling: Unl
Heat Index: 38°   Visibility: 10mi
Dew Point: 33°   Wind: 3mph
Humidity: 83%   Direction: 260°W
Pressure: 30.11"   Gusts: NA
Location:  42.19°N, 111.4°W
Report Text: KLGU 250751Z AUTO 26003KT 10SM CLR 03/01 A3011 RMK AO2 SLP169 T00330006 TSNO
Loading
Personal Weather Stations






























Interactive Weather Map
Tropical Storm Tracking
New forecast layout! Learn more

10-Day Weather Forecast

Advertisements
Track Severe Weather on mobile